Terminal Aerodrome Forecast
Issued by NWS

Home | Current Version | Previous Version | Text Only | Print | Product List | Glossary On
Versions: 1 2 3 4 5 6 7 8 9 10 11 12 13 14
000
FTUS44 KCRP 222300
TAFALI
TAF
KALI 222320Z 2300/2324 09013KT P6SM FEW040
     FM230100 VRB04KT P6SM SCT060
      TEMPO 2311/2314 5SM BR FEW028
     FM231900 09011KT P6SM SCT035=

USA.gov is the U.S. government's official web portal to all federal, state and local government web resources and services.